Time;durP1;ratioP1;P1;durP2;ratioP2;P2;SDS_P1;SDS_P2;PMS_P1;PMS_P2;Temp;Humidity;BMP_temperature;BMP_pressure;BME280_temperature;BME280_humidity;BME280_pressure;Samples;Min_cycle;Max_cycle;Signal;HPM_P1;HPM_P2
2021/08/18 00:00:27;;;;;;;16.52;7.95;;;;;;;12.52;100.00;96114.94;1044238;28;20075;-71
2021/08/18 00:00:57;;;;;;;15.23;7.90;;;;;;;12.49;100.00;96111.75;1044201;28;20363;-70
2021/08/18 00:01:28;;;;;;;15.20;8.33;;;;;;;12.53;100.00;96121.91;1044293;28;20021;-71
2021/08/18 00:01:58;;;;;;;12.87;7.77;;;;;;;12.51;100.00;96116.84;1040144;28;20018;-70
2021/08/18 00:02:29;;;;;;;15.73;7.87;;;;;;;12.47;100.00;96121.94;1032032;28;20081;-71
2021/08/18 00:03:00;;;;;;;12.63;7.53;;;;;;;12.48;100.00;96122.75;1036158;28;20160;-70
2021/08/18 00:03:31;;;;;;;13.27;7.60;;;;;;;12.54;100.00;96116.28;1036089;28;20105;-70
2021/08/18 00:04:03;;;;;;;12.18;7.50;;;;;;;12.56;100.00;96113.31;1036409;28;20034;-71
2021/08/18 00:04:33;;;;;;;15.95;7.78;;;;;;;12.55;100.00;96114.41;1036116;28;20490;-71
2021/08/18 00:05:05;;;;;;;12.67;7.70;;;;;;;12.49;100.00;96122.47;1036761;28;20034;-70
2021/08/18 00:05:35;;;;;;;13.40;7.47;;;;;;;12.52;100.00;96121.09;1040114;28;20351;-71
2021/08/18 00:06:06;;;;;;;14.70;8.10;;;;;;;12.52;100.00;96123.78;1036245;28;20041;-70
2021/08/18 00:06:36;;;;;;;14.80;8.03;;;;;;;12.48;100.00;96120.06;1040242;28;20055;-70
2021/08/18 00:07:07;;;;;;;14.47;7.73;;;;;;;12.48;100.00;96120.06;1035956;28;20037;-71
2021/08/18 00:07:37;;;;;;;15.23;8.37;;;;;;;12.51;100.00;96116.84;1036072;28;20037;-70
2021/08/18 00:08:08;;;;;;;13.77;8.37;;;;;;;12.54;100.00;96118.97;1040164;28;20116;-70
2021/08/18 00:08:41;;;;;;;14.55;8.00;;;;;;;12.56;100.00;96111.44;1040279;28;20087;-71
2021/08/18 00:09:12;;;;;;;16.13;7.93;;;;;;;12.55;100.00;96117.09;1044227;28;20116;-71
2021/08/18 00:09:42;;;;;;;16.42;8.00;;;;;;;12.54;100.00;96116.28;1044252;28;20143;-70
2021/08/18 00:10:13;;;;;;;12.80;7.13;;;;;;;12.58;100.00;96121.88;1044246;28;20059;-70
2021/08/18 00:10:44;;;;;;;12.93;7.73;;;;;;;12.59;100.00;96118.94;1044262;28;20025;-70
2021/08/18 00:11:14;;;;;;;16.80;7.68;;;;;;;12.57;100.00;96114.91;1039943;28;20057;-70
2021/08/18 00:11:45;;;;;;;12.30;7.10;;;;;;;12.58;100.00;96119.19;1040096;28;20526;-70
2021/08/18 00:12:15;;;;;;;12.00;6.93;;;;;;;12.59;100.00;96118.09;1040379;28;20366;-70
2021/08/18 00:12:46;;;;;;;16.83;8.13;;;;;;;12.59;100.00;96113.56;1036155;28;20549;-70
2021/08/18 00:13:16;;;;;;;15.73;8.37;;;;;;;12.60;100.00;96115.16;1040084;28;20035;-71
2021/08/18 00:13:47;;;;;;;15.57;8.00;;;;;;;12.58;100.00;96124.56;1036087;28;20017;-70
2021/08/18 00:14:17;;;;;;;15.77;8.47;;;;;;;12.58;100.00;96121.88;1036197;28;20041;-71
2021/08/18 00:14:48;;;;;;;13.80;7.30;;;;;;;12.56;100.00;96122.16;1044357;28;20027;-71
2021/08/18 00:15:18;;;;;;;14.37;8.47;;;;;;;12.51;100.00;96119.53;1044185;28;20466;-70
2021/08/18 00:15:49;;;;;;;13.10;7.53;;;;;;;12.53;100.00;96114.66;1044589;28;20048;-70
2021/08/18 00:16:20;;;;;;;14.67;8.10;;;;;;;12.55;100.00;96117.88;1044548;28;20453;-71
2021/08/18 00:16:51;;;;;;;14.27;8.07;;;;;;;12.57;100.00;96118.41;1044613;28;20497;-71
2021/08/18 00:17:21;;;;;;;13.87;7.87;;;;;;;12.59;100.00;96118.94;1043954;28;20028;-73
2021/08/18 00:17:54;;;;;;;13.07;7.67;;;;;;;12.59;100.00;96118.09;1044289;28;20051;-73
2021/08/18 00:18:24;;;;;;;15.40;7.85;;;;;;;12.63;100.00;96121.84;1040041;28;20493;-72
2021/08/18 00:18:55;;;;;;;15.90;8.10;;;;;;;12.60;100.00;96117.84;1040075;28;20044;-72
2021/08/18 00:19:25;;;;;;;13.47;8.00;;;;;;;12.60;100.00;96125.09;1039972;28;20026;-72
2021/08/18 00:19:55;;;;;;;13.40;8.10;;;;;;;12.62;100.00;96114.88;1040483;28;20029;-72
2021/08/18 00:20:27;;;;;;;16.17;8.37;;;;;;;12.64;100.00;96118.06;1044204;28;20017;-72
2021/08/18 00:20:57;;;;;;;14.35;7.85;;;;;;;12.65;100.00;96120.50;1044637;28;20497;-72
2021/08/18 00:21:28;;;;;;;13.83;8.17;;;;;;;12.59;100.00;96115.44;1044443;28;20032;-72
2021/08/18 00:21:58;;;;;;;15.33;8.07;;;;;;;12.63;100.00;96111.91;1044485;28;20017;-72
2021/08/18 00:22:28;;;;;;;15.47;8.03;;;;;;;12.61;100.00;96116.75;1044573;28;20017;-72
2021/08/18 00:22:59;;;;;;;16.53;8.60;;;;;;;12.59;100.00;96116.25;1044123;28;20013;-72
2021/08/18 00:23:29;;;;;;;16.00;8.30;;;;;;;12.57;100.00;96117.59;1044106;28;20013;-72
2021/08/18 00:24:00;;;;;;;15.73;8.87;;;;;;;12.58;100.00;96111.94;1044195;28;20025;-72
2021/08/18 00:24:30;;;;;;;16.57;8.53;;;;;;;12.61;100.00;96118.66;1044117;28;20074;-72
2021/08/18 00:25:01;;;;;;;18.77;8.93;;;;;;;12.59;100.00;96105.53;1044562;28;20091;-72
2021/08/18 00:25:31;;;;;;;19.73;10.37;;;;;;;12.56;100.00;96116.00;1044443;28;20489;-72
2021/08/18 00:26:01;;;;;;;19.93;9.73;;;;;;;12.55;100.00;96117.09;1044478;28;20028;-72
2021/08/18 00:26:32;;;;;;;18.67;9.70;;;;;;;12.51;100.00;96114.16;1044551;28;20340;-72
2021/08/18 00:27:02;;;;;;;17.63;9.17;;;;;;;12.52;100.00;96113.06;1044581;28;20017;-72
2021/08/18 00:27:33;;;;;;;20.20;9.00;;;;;;;12.51;100.00;96110.69;1044145;28;20020;-72
2021/08/18 00:28:03;;;;;;;16.00;8.50;;;;;;;12.54;100.00;96115.47;1044175;28;20020;-72
2021/08/18 00:28:34;;;;;;;16.70;8.73;;;;;;;12.56;100.00;96121.38;1044212;28;20024;-72
2021/08/18 00:29:04;;;;;;;18.20;8.93;;;;;;;12.54;100.00;96110.09;1044227;28;20028;-72
2021/08/18 00:29:35;;;;;;;15.63;8.97;;;;;;;12.48;100.00;96112.03;1044414;28;20021;-72
2021/08/18 00:30:06;;;;;;;18.17;9.07;;;;;;;12.50;100.00;96107.19;1044390;28;20021;-70
2021/08/18 00:30:36;;;;;;;19.03;9.73;;;;;;;12.52;100.00;96112.28;1044429;28;20142;-71
2021/08/18 00:31:06;;;;;;;20.37;9.50;;;;;;;12.51;100.00;96110.69;1044456;28;20071;-72
2021/08/18 00:31:37;;;;;;;19.50;9.10;;;;;;;12.51;100.00;96108.00;1044468;28;20025;-72
2021/08/18 00:32:08;;;;;;;20.30;8.93;;;;;;;12.44;100.00;96111.78;1044458;28;20433;-72
2021/08/18 00:32:39;;;;;;;17.55;9.25;;;;;;;12.43;100.00;96102.13;1044456;28;20029;-72
2021/08/18 00:33:09;;;;;;;14.73;8.00;;;;;;;12.49;100.00;96114.44;1044422;28;20476;-72
2021/08/18 00:33:40;;;;;;;15.67;8.60;;;;;;;12.50;100.00;96104.53;1044498;28;20012;-72
2021/08/18 00:34:10;;;;;;;16.97;9.07;;;;;;;12.52;100.00;96104.22;1044425;28;20020;-72
2021/08/18 00:34:41;;;;;;;15.13;8.80;;;;;;;12.54;100.00;96107.41;1044458;28;20025;-72
2021/08/18 00:35:11;;;;;;;17.40;8.77;;;;;;;12.53;100.00;96105.81;1044454;28;20049;-72
2021/08/18 00:35:41;;;;;;;19.83;8.73;;;;;;;12.49;100.00;96105.59;1044489;28;20021;-72
2021/08/18 00:36:12;;;;;;;16.13;8.43;;;;;;;12.43;100.00;96104.81;1044442;28;20087;-71
2021/08/18 00:36:42;;;;;;;19.03;9.57;;;;;;;12.43;100.00;96106.69;1044469;28;20066;-72
2021/08/18 00:37:13;;;;;;;16.33;8.63;;;;;;;12.46;100.00;96112.31;1044501;28;20146;-71
2021/08/18 00:37:44;;;;;;;15.70;8.93;;;;;;;12.50;100.00;96099.16;1044463;28;20021;-70
2021/08/18 00:38:14;;;;;;;16.95;9.05;;;;;;;12.52;100.00;96105.03;1044092;28;20052;-70
2021/08/18 00:38:45;;;;;;;17.80;9.67;;;;;;;12.53;100.00;96109.31;1044189;28;20036;-71
2021/08/18 00:39:15;;;;;;;17.77;9.13;;;;;;;12.52;100.00;96107.72;1044078;28;20032;-72
2021/08/18 00:39:45;;;;;;;17.00;8.53;;;;;;;12.53;100.00;96111.19;1044170;28;20036;-70
2021/08/18 00:40:16;;;;;;;15.83;9.07;;;;;;;12.51;100.00;96108.00;1044425;28;20032;-70
2021/08/18 00:40:47;;;;;;;15.60;8.87;;;;;;;12.47;100.00;96107.75;1044476;28;20020;-70
2021/08/18 00:41:17;;;;;;;17.93;8.83;;;;;;;12.51;100.00;96110.69;1044461;28;20052;-70
2021/08/18 00:41:47;;;;;;;16.07;8.37;;;;;;;12.52;100.00;96107.72;1044166;28;20021;-70
2021/08/18 00:42:18;;;;;;;15.53;8.87;;;;;;;12.53;100.00;96116.53;1039872;28;20021;-70
2021/08/18 00:42:48;;;;;;;16.43;8.57;;;;;;;12.55;100.00;96117.88;1044061;28;20077;-70
2021/08/18 00:43:19;;;;;;;17.23;8.83;;;;;;;12.54;100.00;96118.16;1040031;28;20018;-70
2021/08/18 00:43:50;;;;;;;15.13;8.70;;;;;;;12.54;100.00;96120.81;1040234;28;20051;-70
2021/08/18 00:44:20;;;;;;;17.37;9.30;;;;;;;12.55;100.00;96114.41;1048126;28;20031;-70
2021/08/18 00:44:55;;;;;;;16.20;8.90;;;;;;;12.52;100.00;96115.75;1044130;28;20260;-70
2021/08/18 00:45:25;;;;;;;16.50;9.07;;;;;;;12.53;100.00;96111.19;1044125;28;20175;-70
2021/08/18 00:45:56;;;;;;;18.30;8.97;;;;;;;12.55;100.00;96115.19;1044110;28;20036;-70
2021/08/18 00:46:26;;;;;;;18.47;9.07;;;;;;;12.56;100.00;96108.75;1039935;28;20084;-70
2021/08/18 00:46:58;;;;;;;15.60;9.03;;;;;;;12.55;100.00;96109.84;1040445;28;20414;-71
2021/08/18 00:47:28;;;;;;;16.23;9.02;;;;;;;12.55;100.00;96117.09;1040030;28;20024;-70
2021/08/18 00:47:59;;;;;;;15.27;8.50;;;;;;;12.59;100.00;96115.44;1040213;28;20041;-70
2021/08/18 00:48:29;;;;;;;15.60;8.77;;;;;;;12.54;100.00;96110.09;1044103;28;20025;-71
2021/08/18 00:49:00;;;;;;;15.37;8.63;;;;;;;12.58;100.00;96113.84;1040162;28;20029;-70
2021/08/18 00:49:30;;;;;;;18.77;9.13;;;;;;;12.60;100.00;96120.53;1044167;28;20028;-71
2021/08/18 00:50:01;;;;;;;17.80;9.37;;;;;;;12.60;100.00;96111.69;1039890;28;20499;-70
2021/08/18 00:50:31;;;;;;;17.90;9.73;;;;;;;12.60;100.00;96119.72;1040072;28;20025;-71
2021/08/18 00:51:01;;;;;;;15.77;9.03;;;;;;;12.60;100.00;96115.16;1044084;28;20104;-70
2021/08/18 00:51:32;;;;;;;16.53;9.23;;;;;;;12.62;100.00;96110.31;1044075;28;20025;-70
2021/08/18 00:52:03;;;;;;;15.03;8.27;;;;;;;12.65;100.00;96108.97;1035841;28;20030;-70
2021/08/18 00:52:33;;;;;;;16.57;9.40;;;;;;;12.65;100.00;96107.09;1035946;28;20022;-70
2021/08/18 00:53:04;;;;;;;14.50;8.27;;;;;;;12.66;100.00;96114.03;1035854;28;20073;-70
2021/08/18 00:53:34;;;;;;;18.33;10.00;;;;;;;12.64;100.00;96110.84;1036193;28;20022;-70
2021/08/18 00:54:05;;;;;;;18.23;9.83;;;;;;;12.59;100.00;96110.91;1044105;28;20021;-70
2021/08/18 00:54:35;;;;;;;16.93;9.27;;;;;;;12.58;100.00;96113.84;1044387;28;20032;-71
2021/08/18 00:55:10;;;;;;;17.90;9.57;;;;;;;12.59;100.00;96110.06;1044381;28;20016;-71
2021/08/18 00:55:41;;;;;;;18.38;9.30;;;;;;;12.66;100.00;96115.94;1044456;28;20020;-71
2021/08/18 00:56:12;;;;;;;16.17;8.67;;;;;;;12.63;100.00;96111.91;1044417;28;20078;-71
2021/08/18 00:56:43;;;;;;;20.63;9.70;;;;;;;12.59;100.00;96112.75;1044327;28;20017;-72
2021/08/18 00:57:14;;;;;;;19.48;9.80;;;;;;;12.60;100.00;96106.31;1052336;28;20078;-71
2021/08/18 00:57:44;;;;;;;19.03;9.43;;;;;;;12.62;100.00;96106.84;1044131;28;20025;-71
2021/08/18 00:58:15;;;;;;;18.97;9.43;;;;;;;12.64;100.00;96110.03;1044043;28;20029;-71
2021/08/18 00:58:45;;;;;;;21.10;10.43;;;;;;;12.61;100.00;96103.34;1044124;28;20016;-71
2021/08/18 00:59:16;;;;;;;17.60;10.00;;;;;;;12.58;100.00;96101.22;1039947;28;20017;-71
2021/08/18 00:59:47;;;;;;;17.10;9.27;;;;;;;12.57;100.00;96110.34;1044428;28;20036;-71
2021/08/18 01:00:18;;;;;;;20.80;10.68;;;;;;;12.63;100.00;96108.44;1044100;28;20017;-71
2021/08/18 01:00:48;;;;;;;19.42;9.70;;;;;;;12.63;100.00;96106.53;1044055;28;20115;-71
2021/08/18 01:01:19;;;;;;;16.60;9.60;;;;;;;12.65;100.00;96106.28;1039858;28;20406;-71
2021/08/18 01:01:49;;;;;;;16.90;9.07;;;;;;;12.64;100.00;96094.75;1040214;28;20490;-71
2021/08/18 01:02:19;;;;;;;15.40;8.60;;;;;;;12.68;100.00;96105.72;1039812;28;20478;-71
2021/08/18 01:02:50;;;;;;;17.83;9.50;;;;;;;12.66;100.00;96108.69;1040041;28;20032;-71
2021/08/18 01:03:20;;;;;;;20.10;10.37;;;;;;;12.60;100.00;96115.16;1044016;28;20026;-71
2021/08/18 01:03:51;;;;;;;19.10;9.97;;;;;;;12.61;100.00;96114.09;1044099;28;20043;-69
2021/08/18 01:04:21;;;;;;;19.07;10.23;;;;;;;12.62;100.00;96106.84;1044351;28;20012;-71
2021/08/18 01:04:52;;;;;;;16.70;9.60;;;;;;;12.58;100.00;96114.63;1044451;28;20036;-72
2021/08/18 01:05:24;;;;;;;17.57;9.63;;;;;;;12.59;100.00;96113.56;1044326;28;20021;-72
2021/08/18 01:05:54;;;;;;;15.43;9.27;;;;;;;12.58;100.00;96111.94;1044026;28;20381;-72
2021/08/18 01:06:25;;;;;;;18.37;9.70;;;;;;;12.60;100.00;96111.69;1048073;28;20040;-72
2021/08/18 01:06:55;;;;;;;16.03;10.07;;;;;;;12.63;100.00;96106.53;1048189;28;20035;-72
2021/08/18 01:07:26;;;;;;;18.00;9.87;;;;;;;12.68;100.00;96103.03;1048188;28;20036;-72
2021/08/18 01:07:57;;;;;;;17.07;10.13;;;;;;;12.67;100.00;96104.91;1052387;28;20043;-72
2021/08/18 01:08:27;;;;;;;17.50;9.50;;;;;;;12.69;100.00;96096.59;1044364;28;20147;-71
2021/08/18 01:08:59;;;;;;;18.83;9.97;;;;;;;12.67;100.00;96096.88;1044382;28;20090;-72
2021/08/18 01:09:29;;;;;;;18.48;9.73;;;;;;;12.58;100.00;96097.75;1043961;28;20568;-72
2021/08/18 01:09:59;;;;;;;18.77;9.47;;;;;;;12.55;100.00;96109.03;1044083;28;20037;-72
2021/08/18 01:10:32;;;;;;;17.47;9.83;;;;;;;12.54;100.00;96105.56;1044075;28;20020;-72
2021/08/18 01:11:02;;;;;;;20.25;9.77;;;;;;;12.49;100.00;96101.03;1044099;28;20079;-69
2021/08/18 01:11:36;;;;;;;18.23;10.10;;;;;;;12.57;100.00;96098.84;1044316;28;20082;-69
2021/08/18 01:12:07;;;;;;;20.40;10.13;;;;;;;12.59;100.00;96104.69;1044403;28;20090;-69
2021/08/18 01:12:38;;;;;;;19.17;9.43;;;;;;;12.65;100.00;96100.94;1044334;28;20017;-69
2021/08/18 01:13:08;;;;;;;15.98;9.50;;;;;;;12.66;100.00;96099.84;1044374;28;20025;-69
2021/08/18 01:13:39;;;;;;;18.40;9.97;;;;;;;12.68;100.00;96105.72;1044271;28;20382;-69
2021/08/18 01:14:09;;;;;;;20.27;9.87;;;;;;;12.68;100.00;96106.50;1043958;28;20470;-69
2021/08/18 01:14:40;;;;;;;18.57;9.13;;;;;;;12.65;100.00;96106.28;1039906;28;20037;-69
2021/08/18 01:15:12;;;;;;;19.10;9.33;;;;;;;12.62;100.00;96104.94;1039964;28;20030;-69
2021/08/18 01:15:42;;;;;;;15.82;9.07;;;;;;;12.65;100.00;96106.28;1040172;28;20017;-69
2021/08/18 01:16:12;;;;;;;15.33;8.83;;;;;;;12.63;100.00;96100.38;1043973;28;20083;-69
2021/08/18 01:16:45;;;;;;;17.20;9.23;;;;;;;12.67;100.00;96101.44;1044013;28;20074;-70
2021/08/18 01:17:16;;;;;;;19.30;10.52;;;;;;;12.66;100.00;96106.00;1039809;28;20040;-70
2021/08/18 01:17:47;;;;;;;21.87;9.43;;;;;;;12.66;100.00;96097.16;1039829;28;20466;-69
2021/08/18 01:18:18;;;;;;;15.73;8.90;;;;;;;12.66;100.00;96097.97;1044012;28;20029;-70
2021/08/18 01:18:48;;;;;;;18.07;9.80;;;;;;;12.60;100.00;96098.28;1044038;28;20025;-70
2021/08/18 01:19:19;;;;;;;18.27;9.90;;;;;;;12.54;100.00;96107.41;1044335;28;20024;-70
2021/08/18 01:19:49;;;;;;;17.97;9.30;;;;;;;12.54;100.00;96107.41;1043966;28;20063;-70
2021/08/18 01:20:42;;;;;;;18.23;9.87;;;;;;;12.55;100.00;96109.84;1044074;28;20025;-69
2021/08/18 01:21:13;;;;;;;19.23;10.15;;;;;;;12.53;100.00;96101.25;1044005;28;20036;-69
2021/08/18 01:21:44;;;;;;;18.70;9.57;;;;;;;12.56;100.00;96095.34;1044148;28;20036;-70
2021/08/18 01:22:14;;;;;;;18.77;10.50;;;;;;;12.57;100.00;96101.50;1043984;28;20370;-72
2021/08/18 01:22:45;;;;;;;17.20;9.63;;;;;;;12.61;100.00;96092.63;1044036;28;20040;-69
2021/08/18 01:23:15;;;;;;;16.40;8.83;;;;;;;12.62;100.00;96090.75;1039992;28;20060;-69
2021/08/18 01:23:46;;;;;;;17.47;9.43;;;;;;;12.64;100.00;96093.94;1039895;28;20017;-69
2021/08/18 01:24:18;;;;;;;20.27;10.10;;;;;;;12.63;100.00;96097.72;1044084;28;20470;-70
2021/08/18 01:24:48;;;;;;;16.70;9.20;;;;;;;12.57;100.00;96093.47;1040223;28;20470;-70
2021/08/18 01:25:19;;;;;;;19.67;9.27;;;;;;;12.55;100.00;96092.97;1044010;28;20029;-69
2021/08/18 01:25:49;;;;;;;17.40;9.77;;;;;;;12.52;100.00;96098.88;1044016;28;20021;-70
2021/08/18 01:26:20;;;;;;;18.30;9.83;;;;;;;12.53;100.00;96089.75;1044023;28;20075;-70
2021/08/18 01:26:50;;;;;;;19.77;9.93;;;;;;;12.52;100.00;96093.50;1044319;28;20017;-70
2021/08/18 01:27:20;;;;;;;17.83;9.87;;;;;;;12.55;100.00;96090.28;1044381;28;20040;-70
2021/08/18 01:27:53;;;;;;;17.50;9.73;;;;;;;12.58;100.00;96097.75;1044274;28;20493;-70
2021/08/18 01:28:25;;;;;;;17.88;9.30;;;;;;;12.57;100.00;96085.44;1043929;28;20017;-69
2021/08/18 01:28:56;;;;;;;16.55;9.50;;;;;;;12.55;100.00;96087.59;1043981;28;20107;-69
2021/08/18 01:29:27;;;;;;;17.00;8.90;;;;;;;12.57;100.00;96093.47;1044018;28;20025;-70
2021/08/18 01:29:57;;;;;;;20.13;10.03;;;;;;;12.54;100.00;96091.34;1044047;28;20460;-69
2021/08/18 01:30:28;;;;;;;15.80;8.80;;;;;;;12.58;100.00;96089.69;1044343;28;20086;-69
2021/08/18 01:30:58;;;;;;;19.57;9.80;;;;;;;12.57;100.00;96093.47;1039875;28;20116;-69
2021/08/18 01:31:29;;;;;;;19.47;9.90;;;;;;;12.60;100.00;96087.56;1039943;28;20032;-69
2021/08/18 01:31:59;;;;;;;16.83;9.40;;;;;;;12.61;100.00;96083.78;1035775;28;20026;-70
2021/08/18 01:32:44;;;;;;;17.87;9.73;;;;;;;12.61;100.00;96089.94;1035954;28;20033;-69
2021/08/18 01:33:15;;;;;;;18.25;9.90;;;;;;;12.54;100.00;96083.28;1044034;28;20386;-69
2021/08/18 01:33:46;;;;;;;20.73;9.77;;;;;;;12.50;100.00;96083.06;1044145;28;20025;-69
2021/08/18 01:34:16;;;;;;;18.27;9.57;;;;;;;12.47;100.00;96092.47;1044020;28;20025;-69
2021/08/18 01:34:47;;;;;;;22.10;9.73;;;;;;;12.52;100.00;96091.63;1043948;28;20087;-69
2021/08/18 01:35:28;;;;;;;18.77;10.07;;;;;;;12.51;100.00;96084.66;1044021;28;20029;-70
2021/08/18 01:35:58;;;;;;;17.83;9.55;;;;;;;12.52;100.00;96080.91;1049659;28;20035;-70
2021/08/18 01:36:29;;;;;;;15.13;9.17;;;;;;;12.58;100.00;96085.13;1052295;28;20031;-70
2021/08/18 01:37:00;;;;;;;17.70;10.00;;;;;;;12.62;100.00;96083.50;1052277;28;20024;-70
2021/08/18 01:37:30;;;;;;;17.60;9.83;;;;;;;12.62;100.00;96080.03;1052093;28;20031;-70
2021/08/18 01:38:01;;;;;;;19.03;9.10;;;;;;;12.64;100.00;96080.53;1043951;28;20088;-70
2021/08/18 01:38:31;;;;;;;17.07;9.47;;;;;;;12.66;100.00;96086.44;1043918;28;20017;-70
2021/08/18 01:39:06;;;;;;;17.07;9.27;;;;;;;12.65;100.00;96079.47;1044012;28;20024;-70
2021/08/18 01:39:37;;;;;;;16.52;9.45;;;;;;;12.60;100.00;96083.00;1043912;28;20029;-69
2021/08/18 01:40:08;;;;;;;18.60;9.90;;;;;;;12.57;100.00;96080.06;1043965;28;20040;-69
2021/08/18 01:40:40;;;;;;;19.38;9.88;;;;;;;12.56;100.00;96083.84;1043882;28;20025;-69
2021/08/18 01:41:10;;;;;;;22.00;10.48;;;;;;;12.56;100.00;96079.28;1043617;28;20029;-70
2021/08/18 01:41:41;;;;;;;16.87;9.67;;;;;;;12.61;100.00;96084.59;1039933;28;20021;-69
2021/08/18 01:42:12;;;;;;;18.25;10.30;;;;;;;12.62;100.00;96085.38;1040275;28;20045;-69
2021/08/18 01:42:42;;;;;;;17.73;9.53;;;;;;;12.62;100.00;96082.72;1043933;28;20052;-69
2021/08/18 01:43:13;;;;;;;16.97;9.43;;;;;;;12.65;100.00;96090.19;1044384;28;20481;-70
2021/08/18 01:43:43;;;;;;;17.93;10.00;;;;;;;12.66;100.00;96086.44;1044313;28;20449;-70
2021/08/18 01:44:14;;;;;;;17.67;9.80;;;;;;;12.69;100.00;96083.16;1044347;28;20017;-70
2021/08/18 01:44:44;;;;;;;21.50;10.00;;;;;;;12.66;100.00;96078.38;1044286;28;20041;-70
2021/08/18 01:45:25;;;;;;;18.20;9.90;;;;;;;12.67;100.00;96082.66;1044306;28;20020;-69
2021/08/18 01:45:55;;;;;;;17.80;9.02;;;;;;;12.65;100.00;96079.47;1044313;28;20427;-69
2021/08/18 01:46:26;;;;;;;16.83;9.50;;;;;;;12.61;100.00;96081.91;1039861;28;20025;-69
2021/08/18 01:46:56;;;;;;;19.63;9.63;;;;;;;12.64;100.00;96080.53;1039754;28;20052;-69
2021/08/18 01:47:27;;;;;;;16.93;9.57;;;;;;;12.59;100.00;96086.75;1039901;28;20398;-69
2021/08/18 01:47:57;;;;;;;15.77;9.07;;;;;;;12.58;100.00;96082.47;1035861;28;20037;-69
2021/08/18 01:48:32;;;;;;;19.53;10.53;;;;;;;12.60;100.00;96076.84;1044010;28;20024;-69
2021/08/18 01:49:03;;;;;;;19.50;10.20;;;;;;;12.64;100.00;96078.69;1039723;28;20120;-70
2021/08/18 01:49:33;;;;;;;18.70;10.00;;;;;;;12.61;100.00;96078.44;1040619;28;20499;-69
2021/08/18 01:50:04;;;;;;;22.30;10.30;;;;;;;12.63;100.00;96082.41;1043995;28;20025;-69
2021/08/18 01:50:35;;;;;;;19.48;9.88;;;;;;;12.63;100.00;96078.94;1031699;28;20033;-69
2021/08/18 01:51:06;;;;;;;18.27;10.10;;;;;;;12.62;100.00;96075.47;1035686;28;20475;-70
2021/08/18 01:51:36;;;;;;;18.75;10.10;;;;;;;12.63;100.00;96081.63;1035736;28;20414;-69
2021/08/18 01:52:07;;;;;;;22.90;10.53;;;;;;;12.64;100.00;96077.84;1032191;28;20033;-69
2021/08/18 01:52:37;;;;;;;18.33;9.33;;;;;;;12.58;100.00;96079.78;1044062;28;20126;-69
2021/08/18 01:53:08;;;;;;;19.27;9.37;;;;;;;12.55;100.00;96080.34;1043841;28;20021;-70
2021/08/18 01:53:43;;;;;;;17.73;9.43;;;;;;;12.55;100.00;96069.63;1044005;28;20021;-69
2021/08/18 01:54:13;;;;;;;18.15;9.70;;;;;;;12.56;100.00;96073.09;1044287;28;20029;-69
2021/08/18 01:54:43;;;;;;;21.77;10.37;;;;;;;12.60;100.00;96082.19;1044363;28;20029;-69
2021/08/18 01:55:14;;;;;;;18.50;10.03;;;;;;;12.56;100.00;96076.59;1044214;28;20028;-69
2021/08/18 01:55:44;;;;;;;16.77;9.63;;;;;;;12.56;100.00;96075.78;1043944;28;20021;-70
2021/08/18 01:56:16;;;;;;;17.90;9.53;;;;;;;12.56;100.00;96078.47;1039819;28;20024;-69
2021/08/18 01:56:47;;;;;;;18.23;9.82;;;;;;;12.56;100.00;96075.78;1039911;28;20449;-69
2021/08/18 01:57:18;;;;;;;17.43;10.07;;;;;;;12.51;100.00;96078.50;1040114;28;20029;-70
2021/08/18 01:57:49;;;;;;;20.13;10.35;;;;;;;12.48;100.00;96072.59;1044022;28;20071;-69
2021/08/18 01:58:19;;;;;;;17.53;9.40;;;;;;;12.49;100.00;96076.13;1043910;28;20033;-69
2021/08/18 01:58:50;;;;;;;20.40;10.10;;;;;;;12.48;100.00;96074.50;1044337;28;20474;-69
2021/08/18 01:59:20;;;;;;;17.67;9.33;;;;;;;12.48;100.00;96069.94;1043708;28;20025;-69
2021/08/18 01:59:50;;;;;;;19.03;9.83;;;;;;;12.42;100.00;96071.06;1039825;28;20017;-70
2021/08/18 02:00:21;;;;;;;17.57;10.27;;;;;;;12.44;100.00;96076.16;1035674;28;20025;-70
2021/08/18 02:00:52;;;;;;;21.03;11.07;;;;;;;12.48;100.00;96072.59;1031733;28;20077;-70
2021/08/18 02:01:22;;;;;;;22.60;11.00;;;;;;;12.48;100.00;96074.50;1031652;28;20065;-69
2021/08/18 02:01:53;;;;;;;16.83;9.90;;;;;;;12.46;100.00;96074.78;1035893;28;20025;-69
2021/08/18 02:02:27;;;;;;;20.10;10.17;;;;;;;12.49;100.00;96079.59;1039993;28;20439;-69
2021/08/18 02:02:57;;;;;;;16.48;9.38;;;;;;;12.51;100.00;96070.47;1043961;28;20067;-69
2021/08/18 02:03:28;;;;;;;20.47;10.37;;;;;;;12.49;100.00;96082.28;1043895;28;20103;-71
2021/08/18 02:03:58;;;;;;;19.77;10.70;;;;;;;12.53;100.00;96076.34;1044301;28;20070;-71
2021/08/18 02:04:29;;;;;;;20.13;10.43;;;;;;;12.47;100.00;96076.38;1043863;28;20032;-71
2021/08/18 02:04:59;;;;;;;19.30;10.30;;;;;;;12.43;100.00;96078.00;1044007;28;20463;-71
2021/08/18 02:05:29;;;;;;;19.30;10.60;;;;;;;12.45;100.00;96077.75;1043837;28;20024;-71
2021/08/18 02:06:00;;;;;;;19.63;10.17;;;;;;;12.45;100.00;96083.13;1043989;28;20024;-71
2021/08/18 02:06:32;;;;;;;20.20;10.53;;;;;;;12.40;100.00;96067.88;1044241;28;20066;-71
2021/08/18 02:07:03;;;;;;;18.95;10.27;;;;;;;12.39;100.00;96074.31;1044299;28;20022;-71
2021/08/18 02:07:34;;;;;;;19.15;9.68;;;;;;;12.38;100.00;96079.94;1044172;28;20014;-71
2021/08/18 02:08:04;;;;;;;17.43;9.87;;;;;;;12.37;100.00;96078.31;1044277;28;20025;-71
2021/08/18 02:08:35;;;;;;;18.27;9.87;;;;;;;12.42;100.00;96087.13;1043846;28;20020;-71
2021/08/18 02:09:05;;;;;;;21.57;9.97;;;;;;;12.43;100.00;96078.00;1043919;28;20017;-71
2021/08/18 02:09:36;;;;;;;18.33;9.70;;;;;;;12.46;100.00;96076.66;1043868;28;20021;-71
2021/08/18 02:10:12;;;;;;;18.23;10.20;;;;;;;12.46;100.00;96080.13;1043910;28;20032;-71
2021/08/18 02:10:42;;;;;;;19.30;10.05;;;;;;;12.48;100.00;96075.28;1043861;28;20060;-71
2021/08/18 02:11:13;;;;;;;18.37;9.37;;;;;;;12.54;100.00;96078.75;1048134;28;20465;-71
2021/08/18 02:11:43;;;;;;;17.00;9.97;;;;;;;12.57;100.00;96082.75;1047962;28;20461;-71
2021/08/18 02:12:14;;;;;;;18.53;9.27;;;;;;;12.53;100.00;96079.03;1048146;28;20043;-71
2021/08/18 02:12:44;;;;;;;18.67;10.33;;;;;;;12.57;100.00;96074.69;1052099;28;20024;-71
2021/08/18 02:13:15;;;;;;;18.83;10.17;;;;;;;12.57;100.00;96080.88;1043930;28;20013;-71
2021/08/18 02:13:45;;;;;;;17.60;10.17;;;;;;;12.56;100.00;96081.94;1048048;28;20013;-71
2021/08/18 02:14:16;;;;;;;17.83;10.00;;;;;;;12.53;100.00;96079.81;1048021;28;20024;-71
2021/08/18 02:14:46;;;;;;;21.97;10.50;;;;;;;12.52;100.00;96078.22;1048002;28;20024;-71
2021/08/18 02:15:25;;;;;;;18.40;10.20;;;;;;;12.52;100.00;96074.75;1052197;28;20016;-71
2021/08/18 02:15:56;;;;;;;16.85;9.30;;;;;;;12.54;100.00;96077.94;1039722;28;20124;-71
2021/08/18 02:16:26;;;;;;;27.43;10.03;;;;;;;12.54;100.00;96078.75;1039797;28;20200;-71
2021/08/18 02:16:57;;;;;;;18.53;10.07;;;;;;;12.54;100.00;96068.03;1039785;28;20017;-71
2021/08/18 02:17:27;;;;;;;18.70;9.80;;;;;;;12.51;100.00;96079.31;1039645;28;20482;-71
2021/08/18 02:17:58;;;;;;;17.20;9.87;;;;;;;12.55;100.00;96079.56;1044124;28;20044;-71
2021/08/18 02:18:29;;;;;;;21.90;10.48;;;;;;;12.52;100.00;96077.41;1044139;28;20013;-71
2021/08/18 02:18:59;;;;;;;19.13;10.73;;;;;;;12.49;100.00;96071.56;1044191;28;20033;-71
2021/08/18 02:19:29;;;;;;;19.17;10.03;;;;;;;12.49;100.00;96076.91;1044117;28;20017;-71
2021/08/18 02:20:00;;;;;;;18.17;9.57;;;;;;;12.52;100.00;96074.75;1044128;28;20041;-71
2021/08/18 02:20:33;;;;;;;19.23;9.43;;;;;;;12.46;100.00;96068.63;1043857;28;20389;-71
2021/08/18 02:21:03;;;;;;;18.40;9.82;;;;;;;12.49;100.00;96070.75;1043753;28;20032;-71
2021/08/18 02:21:33;;;;;;;21.17;10.60;;;;;;;12.48;100.00;96067.25;1043854;28;20025;-71
2021/08/18 02:22:04;;;;;;;18.97;10.47;;;;;;;12.48;100.00;96071.81;1043769;28;20467;-71